createdAt,value
2023-01-18T00:04:59.599Z,12.8
2023-01-18T00:15:37.533Z,12.8
2023-01-18T00:20:56.771Z,12.8
2023-01-18T00:26:15.869Z,12.8
2023-01-18T00:31:35.278Z,12.79
2023-01-18T00:36:54.667Z,12.8
2023-01-18T00:42:14.205Z,12.8
2023-01-18T00:47:33.036Z,12.8
2023-01-18T00:52:52.028Z,12.79
2023-01-18T00:58:11.177Z,12.79
2023-01-18T01:03:30.363Z,12.79
2023-01-18T01:08:49.738Z,12.78
2023-01-18T01:14:08.577Z,12.79
2023-01-18T01:19:27.572Z,12.78
2023-01-18T01:24:46.734Z,12.79
2023-01-18T01:30:06.537Z,12.79
2023-01-18T01:35:25.406Z,12.78
2023-01-18T01:40:45.062Z,12.78
2023-01-18T01:46:04.054Z,12.79
2023-01-18T01:51:23.223Z,12.79
2023-01-18T01:56:42.611Z,12.78
2023-01-18T02:02:02.502Z,12.78
2023-01-18T02:07:21.688Z,12.78
2023-01-18T02:12:40.693Z,12.78
2023-01-18T02:17:59.785Z,12.78
2023-01-18T02:23:18.785Z,12.78
2023-01-18T02:28:38.345Z,12.78
2023-01-18T02:33:57.631Z,12.78
2023-01-18T02:39:16.578Z,12.78
2023-01-18T02:44:35.740Z,12.78
2023-01-18T02:49:55.217Z,12.77
2023-01-18T02:55:14.601Z,12.77
2023-01-18T03:00:34.136Z,12.78
2023-01-18T03:05:53.056Z,12.77
2023-01-18T03:11:12.631Z,12.77
2023-01-18T03:16:31.745Z,12.76
2023-01-18T03:21:50.605Z,12.77
2023-01-18T03:27:09.589Z,12.77
2023-01-18T03:32:28.530Z,12.77
2023-01-18T03:37:47.670Z,12.76
2023-01-18T03:43:06.569Z,12.76
2023-01-18T03:48:26.078Z,12.76
2023-01-18T03:53:45.743Z,12.76
2023-01-18T04:04:24.413Z,12.76
2023-01-18T04:09:43.418Z,12.75
2023-01-18T04:15:03.019Z,12.76
2023-01-18T04:20:22.604Z,12.76
2023-01-18T04:25:52.355Z,12.76
2023-01-18T04:31:01.972Z,12.76
2023-01-18T04:36:21.499Z,12.76
2023-01-18T04:41:41.005Z,12.76
2023-01-18T04:46:59.903Z,12.75
2023-01-18T04:52:19.249Z,12.75
2023-01-18T04:57:38.612Z,12.75
2023-01-18T05:02:58.315Z,12.75
2023-01-18T05:08:17.165Z,12.75
2023-01-18T05:13:36.628Z,12.75
2023-01-18T05:18:56.257Z,12.75
2023-01-18T05:24:15.700Z,12.75
2023-01-18T05:29:34.913Z,12.75
2023-01-18T05:34:54.236Z,12.75
2023-01-18T05:40:13.468Z,12.74
2023-01-18T05:45:32.986Z,12.74
2023-01-18T05:50:52.311Z,12.74
2023-01-18T05:56:11.958Z,12.74
2023-01-18T06:01:31.385Z,12.74
2023-01-18T06:06:50.694Z,12.74
2023-01-18T06:12:10.275Z,12.74
2023-01-18T06:17:29.288Z,12.74
2023-01-18T06:22:48.530Z,12.74
2023-01-18T06:28:08.244Z,12.74
2023-01-18T06:33:28.009Z,12.74
2023-01-18T06:38:47.256Z,12.74
2023-01-18T06:44:06.526Z,12.74
2023-01-18T06:49:25.411Z,12.73
2023-01-18T06:54:44.755Z,12.74
2023-01-18T07:00:03.990Z,12.74
2023-01-18T07:05:23.484Z,12.73
2023-01-18T07:10:42.352Z,12.73
2023-01-18T07:16:01.985Z,12.73
2023-01-18T07:21:20.853Z,12.73
2023-01-18T07:27:14.147Z,12.73
2023-01-18T07:37:53.572Z,12.73
2023-01-18T07:43:13.054Z,12.73
2023-01-18T07:48:32.364Z,12.72
2023-01-18T07:53:51.835Z,12.73
2023-01-18T07:59:11.270Z,12.72
2023-01-18T08:04:30.570Z,12.73
2023-01-18T08:09:49.403Z,12.73
2023-01-18T08:15:08.214Z,12.72
2023-01-18T08:20:27.901Z,12.72
2023-01-18T08:25:47.716Z,12.72
2023-01-18T08:36:26.158Z,12.72
2023-01-18T08:41:45.081Z,12.72
2023-01-18T08:47:04.068Z,12.72
2023-01-18T08:52:23.488Z,12.72
2023-01-18T08:57:42.572Z,12.72
2023-01-18T09:03:02.010Z,12.72
2023-01-18T09:08:20.387Z,12.72
2023-01-18T09:18:58.961Z,12.72
2023-01-18T09:24:18.498Z,12.72
2023-01-18T09:29:37.877Z,12.71
2023-01-18T09:34:57.244Z,12.72
2023-01-18T09:40:16.415Z,12.72
2023-01-18T09:45:35.482Z,12.72
2023-01-18T09:50:55.077Z,12.72
2023-01-18T10:01:33.920Z,12.72
2023-01-18T10:06:53.249Z,12.71
2023-01-18T10:12:12.428Z,12.71
2023-01-18T10:17:32.076Z,12.71
2023-01-18T10:22:51.528Z,12.71
2023-01-18T10:28:11.368Z,12.71
2023-01-18T10:33:30.170Z,12.71
2023-01-18T10:38:49.313Z,12.71
2023-01-18T10:44:08.903Z,12.71
2023-01-18T10:49:28.373Z,12.71
2023-01-18T10:54:47.199Z,12.71
2023-01-18T11:00:06.972Z,12.71
2023-01-18T11:05:25.803Z,12.71
2023-01-18T11:10:45.243Z,12.71
2023-01-18T11:16:05.009Z,12.7
2023-01-18T11:21:24.899Z,12.7
2023-01-18T11:26:45.305Z,12.7
2023-01-18T11:32:03.698Z,12.71
2023-01-18T11:37:22.970Z,12.71
2023-01-18T11:42:42.586Z,12.71
2023-01-18T11:48:01.670Z,12.71
2023-01-18T11:53:20.590Z,12.7
2023-01-18T12:03:59.481Z,12.7
2023-01-18T12:09:18.497Z,12.7
2023-01-18T12:14:37.850Z,12.7
2023-01-18T12:19:57.151Z,12.7
2023-01-18T12:25:16.915Z,12.7
2023-01-18T12:30:35.928Z,12.71
2023-01-18T12:35:55.576Z,12.7
2023-01-18T12:41:14.699Z,12.7
2023-01-18T12:46:34.142Z,12.7
2023-01-18T12:51:53.407Z,12.71
2023-01-18T12:57:12.534Z,12.7
2023-01-18T13:02:32.282Z,12.7
2023-01-18T13:07:51.606Z,12.7
2023-01-18T13:13:11.339Z,12.7
2023-01-18T13:18:31.093Z,12.7
2023-01-18T13:23:50.679Z,12.7
2023-01-18T13:29:10.476Z,12.7
2023-01-18T13:34:29.929Z,12.7
2023-01-18T13:39:49.425Z,12.7
2023-01-18T13:45:08.410Z,12.69
2023-01-18T13:50:27.156Z,12.69
2023-01-18T13:55:46.879Z,12.69
2023-01-18T14:01:05.991Z,12.7
2023-01-18T14:11:44.957Z,12.7
2023-01-18T14:17:03.944Z,12.69
2023-01-18T14:27:42.254Z,12.68
2023-01-18T14:38:21.111Z,12.69
2023-01-18T14:43:40.757Z,12.68
2023-01-18T14:49:00.349Z,12.69
2023-01-18T14:54:19.665Z,12.68
2023-01-18T14:59:39.024Z,12.68
2023-01-18T15:04:58.608Z,12.68
2023-01-18T15:10:17.757Z,12.68
2023-01-18T15:15:37.415Z,12.68
2023-01-18T15:20:56.687Z,12.68
2023-01-18T15:26:15.719Z,12.67
2023-01-18T15:31:34.710Z,12.68
2023-01-18T15:36:54.233Z,12.68
2023-01-18T15:42:13.852Z,12.68
2023-01-18T15:47:33.325Z,12.67
2023-01-18T15:52:53.011Z,12.68
2023-01-18T15:58:12.488Z,12.67
2023-01-18T16:03:31.390Z,12.67
2023-01-18T16:08:50.631Z,12.67
2023-01-18T16:14:10.387Z,12.67
2023-01-18T16:19:29.755Z,12.67
2023-01-18T16:24:48.827Z,12.67
2023-01-18T16:30:08.103Z,12.67
2023-01-18T16:35:27.405Z,12.67
2023-01-18T16:40:46.304Z,12.66
2023-01-18T16:46:06.328Z,12.66
2023-01-18T16:51:25.709Z,12.66
2023-01-18T16:56:44.750Z,12.66
2023-01-18T17:02:04.508Z,12.66
2023-01-18T17:07:23.419Z,12.66
2023-01-18T17:12:42.615Z,12.65
2023-01-18T17:18:02.281Z,12.66
2023-01-18T17:23:21.972Z,12.65
2023-01-18T17:28:41.233Z,12.66
2023-01-18T17:34:00.449Z,12.66
2023-01-18T17:39:19.354Z,12.66
2023-01-18T17:44:38.751Z,12.65
2023-01-18T17:49:57.875Z,12.65
2023-01-18T17:55:19.615Z,12.66
2023-01-18T18:00:36.491Z,12.64
2023-01-18T18:05:55.476Z,12.65
2023-01-18T18:11:15.171Z,12.65
2023-01-18T18:16:43.643Z,12.65
2023-01-18T18:21:53.937Z,12.64
2023-01-18T18:27:13.269Z,12.65
2023-01-18T18:32:32.211Z,12.64
2023-01-18T18:37:51.942Z,12.64
2023-01-18T18:43:10.992Z,12.64
2023-01-18T18:53:49.135Z,12.64
2023-01-18T18:59:08.647Z,12.64
2023-01-18T19:04:28.039Z,12.64
2023-01-18T19:09:47.077Z,12.63
2023-01-18T19:15:06.742Z,12.63
2023-01-18T19:20:26.160Z,12.64
2023-01-18T19:25:45.609Z,12.63
2023-01-18T19:31:04.592Z,12.63
2023-01-18T19:36:24.104Z,12.63
2023-01-18T19:41:43.129Z,12.62
2023-01-18T19:47:02.939Z,12.62
2023-01-18T19:52:22.640Z,12.63
2023-01-18T19:57:42.269Z,12.63
2023-01-18T20:03:02.240Z,12.63
2023-01-18T20:08:21.489Z,12.62
2023-01-18T20:19:00.539Z,12.62
2023-01-18T20:24:20.812Z,12.61
2023-01-18T20:29:39.698Z,12.61
2023-01-18T20:34:58.730Z,12.61
2023-01-18T20:40:18.385Z,12.61
2023-01-18T20:45:38.187Z,12.61
2023-01-18T20:50:57.173Z,12.61
2023-01-18T20:56:28.673Z,12.6
2023-01-18T21:01:36.323Z,12.6
2023-01-18T21:06:56.048Z,12.61
2023-01-18T21:12:15.208Z,12.6
2023-01-18T21:17:34.886Z,12.6
2023-01-18T21:22:53.772Z,12.6
2023-01-18T21:28:12.915Z,12.6
2023-01-18T21:33:31.826Z,12.6
2023-01-18T21:44:11.617Z,12.58
2023-01-18T21:49:39.737Z,12.6
2023-01-18T21:54:48.952Z,12.59
2023-01-18T22:00:08.648Z,12.6
2023-01-18T22:05:28.058Z,12.59
2023-01-18T22:10:47.435Z,12.59
2023-01-18T22:16:06.547Z,12.58
2023-01-18T22:21:25.632Z,12.59
2023-01-18T22:26:45.400Z,12.59
2023-01-18T22:32:05.063Z,12.58
2023-01-18T22:37:24.377Z,12.58
2023-01-18T22:42:44.067Z,12.58
2023-01-18T22:48:03.337Z,12.58
2023-01-18T22:53:22.290Z,12.58
2023-01-18T22:58:41.626Z,12.57
2023-01-18T23:04:01.276Z,12.57
2023-01-18T23:09:20.680Z,12.58
2023-01-18T23:14:40.578Z,12.57
2023-01-18T23:20:00.075Z,12.56
2023-01-18T23:25:19.676Z,12.57
2023-01-18T23:30:39.052Z,12.57
2023-01-18T23:35:58.495Z,12.56
2023-01-18T23:41:17.592Z,12.57
2023-01-18T23:46:37.341Z,12.57
2023-01-18T23:51:56.481Z,12.56
2023-01-18T23:57:15.470Z,12.56
